Time;durP1;ratioP1;P1;durP2;ratioP2;P2;SDS_P1;SDS_P2;PMS_P1;PMS_P2;Temp;Humidity;BMP_temperature;BMP_pressure;BME280_temperature;BME280_humidity;BME280_pressure;Samples;Min_cycle;Max_cycle;Signal;HPM_P1;HPM_P2
2023/07/22 08:49:06;;;;;;;16.52;8.82;;;;;;;17.52;100.00;101159.16;5110399;27;20874;-72
2023/07/22 08:51:33;;;;;;;17.20;8.30;;;;;;;17.52;100.00;101153.69;5112513;28;20031;-65
2023/07/22 08:54:00;;;;;;;13.07;8.02;;;;;;;17.60;100.00;101157.03;5120061;28;20042;-66
2023/07/22 08:56:26;;;;;;;15.00;7.72;;;;;;;17.73;100.00;101148.34;5121041;28;20032;-65
2023/07/22 08:58:52;;;;;;;12.20;7.07;;;;;;;17.84;100.00;101147.28;5125340;28;20172;-66
2023/07/22 09:01:18;;;;;;;11.77;7.03;;;;;;;17.89;100.00;101157.50;5108066;28;20059;-67
2023/07/22 09:03:44;;;;;;;11.70;6.70;;;;;;;17.91;100.00;101151.75;5109434;28;20085;-71
2023/07/22 09:06:11;;;;;;;11.65;6.97;;;;;;;17.94;100.00;101153.94;5120357;28;20077;-70
2023/07/22 09:08:36;;;;;;;12.95;7.50;;;;;;;18.00;100.00;101155.63;5096176;28;20028;-69
2023/07/22 09:11:02;;;;;;;12.07;7.20;;;;;;;18.04;100.00;101157.56;5088555;28;20047;-69
2023/07/22 09:13:28;;;;;;;12.82;6.63;;;;;;;18.06;94.04;101157.28;5089916;28;20111;-68
2023/07/22 09:15:54;;;;;;;8.25;5.80;;;;;;;18.05;91.31;101159.19;5095239;28;20373;-69
2023/07/22 09:18:20;;;;;;;13.38;6.55;;;;;;;18.11;98.20;101154.56;5108697;28;20032;-69
2023/07/22 09:20:46;;;;;;;10.40;6.00;;;;;;;18.21;96.39;101151.84;5109941;28;20042;-68
2023/07/22 09:23:11;;;;;;;12.88;5.82;;;;;;;18.29;91.39;101146.94;5109552;28;20020;-69
2023/07/22 09:25:37;;;;;;;9.35;6.28;;;;;;;18.44;96.78;101144.25;5099656;28;20074;-69
2023/07/22 09:28:02;;;;;;;12.40;6.57;;;;;;;18.52;97.93;101143.69;5100585;28;20031;-69
2023/07/22 09:30:29;;;;;;;11.52;6.30;;;;;;;18.60;98.24;101148.66;5115718;27;20026;-69
2023/07/22 09:32:59;;;;;;;10.27;5.60;;;;;;;18.53;87.79;101147.28;5108434;28;20024;-69
2023/07/22 09:35:29;;;;;;;11.80;5.75;;;;;;;18.52;89.84;101140.97;5109569;28;20028;-69
2023/07/22 09:37:55;;;;;;;19.60;5.93;;;;;;;18.52;90.74;101140.16;5109422;28;20482;-70
2023/07/22 09:40:25;;;;;;;13.27;5.70;;;;;;;18.54;88.76;101143.44;5099408;28;20024;-69
2023/07/22 09:42:53;;;;;;;8.73;5.57;;;;;;;18.64;90.67;101137.16;5088915;28;20028;-69
2023/07/22 09:45:21;;;;;;;8.75;4.80;;;;;;;18.66;87.75;101137.69;5092000;28;20370;-69
2023/07/22 09:47:47;;;;;;;8.55;5.07;;;;;;;18.74;91.10;101137.16;5108038;28;20127;-70
2023/07/22 09:50:18;;;;;;;8.75;4.97;;;;;;;18.75;95.57;101149.75;5088978;28;20028;-68
2023/07/22 09:52:48;;;;;;;13.85;5.45;;;;;;;18.70;94.20;101142.34;5089075;28;20026;-69
2023/07/22 09:55:17;;;;;;;12.85;5.57;;;;;;;18.69;93.95;101135.25;5100681;28;20020;-69
2023/07/22 09:57:45;;;;;;;8.98;4.90;;;;;;;18.73;96.27;101141.00;5109098;28;20119;-67
2023/07/22 10:00:15;;;;;;;7.85;4.40;;;;;;;18.79;90.25;101134.41;5096823;28;20023;-69
2023/07/22 10:02:45;;;;;;;8.63;4.00;;;;;;;18.84;87.30;101141.81;5093443;28;20028;-68
2023/07/22 10:05:16;;;;;;;9.27;3.85;;;;;;;18.81;86.24;101145.97;5095477;28;20111;-69
2023/07/22 10:07:49;;;;;;;9.30;4.78;;;;;;;18.80;87.07;101136.06;5095773;28;20576;-70
2023/07/22 10:10:25;;;;;;;10.38;4.80;;;;;;;18.83;88.38;101135.53;5089974;28;20028;-69
2023/07/22 10:12:51;;;;;;;10.23;4.82;;;;;;;18.83;90.73;101138.28;5095222;28;20024;-72
2023/07/22 10:15:17;;;;;;;9.32;4.90;;;;;;;18.81;91.59;101136.88;5073850;28;20408;-68
2023/07/22 10:17:44;;;;;;;8.65;4.15;;;;;;;18.82;82.95;101139.34;5075232;28;20074;-70
2023/07/22 10:20:15;;;;;;;9.38;3.60;;;;;;;18.79;79.19;101142.66;5074521;28;20345;-68
2023/07/22 10:22:43;;;;;;;8.32;4.00;;;;;;;18.83;78.08;101141.00;5074563;28;20036;-70
2023/07/22 10:25:11;;;;;;;7.28;3.50;;;;;;;18.89;77.57;101145.44;5074845;28;20024;-72
2023/07/22 10:27:39;;;;;;;7.30;3.55;;;;;;;18.98;75.52;101142.97;5076923;28;20031;-70
2023/07/22 10:30:06;;;;;;;9.65;3.95;;;;;;;19.06;71.73;101145.16;5095103;28;20055;-71
2023/07/22 10:32:41;;;;;;;5.72;3.00;;;;;;;19.04;68.59;101130.09;5089607;28;20415;-69
2023/07/22 10:35:31;;;;;;;7.18;2.90;;;;;;;19.06;68.33;101138.84;5085937;28;20028;-69
2023/07/22 10:38:13;;;;;;;5.80;3.20;;;;;;;19.06;71.83;101149.81;5092819;28;20058;-69
2023/07/22 10:40:53;;;;;;;8.25;3.00;;;;;;;19.11;72.64;101149.81;5095003;28;20458;-69
2023/07/22 10:43:30;;;;;;;8.05;3.22;;;;;;;19.16;68.79;101138.84;5094770;28;20024;-70
2023/07/22 10:45:57;;;;;;;9.57;3.03;;;;;;;19.24;67.75;101127.31;5080333;28;20082;-69
2023/07/22 10:48:27;;;;;;;6.60;2.80;;;;;;;19.32;66.94;101125.91;5110080;28;20138;-69
2023/07/22 10:50:57;;;;;;;9.77;2.90;;;;;;;19.46;66.86;101123.41;5103944;28;20035;-67
2023/07/22 10:53:26;;;;;;;5.90;2.60;;;;;;;19.61;67.50;101120.66;5094227;28;20027;-73
2023/07/22 10:56:09;;;;;;;6.60;2.60;;;;;;;19.62;63.47;101122.28;5081790;28;20048;-69
2023/07/22 10:58:46;;;;;;;4.88;2.60;;;;;;;19.62;60.99;101127.75;5074429;28;20154;-70
2023/07/22 11:01:32;;;;;;;4.53;2.15;;;;;;;19.58;62.39;101129.44;5071554;28;20035;-69
2023/07/22 11:04:16;;;;;;;4.82;2.40;;;;;;;19.59;62.67;101127.50;5074350;28;20035;-70
2023/07/22 11:06:48;;;;;;;4.10;2.20;;;;;;;19.50;63.40;101127.25;5073717;28;20021;-71
2023/07/22 11:09:29;;;;;;;6.07;2.65;;;;;;;19.48;63.92;101135.75;5091899;28;20438;-68
2023/07/22 11:12:07;;;;;;;4.97;2.35;;;;;;;19.52;63.70;101130.56;5093395;28;20020;-68
2023/07/22 11:14:34;;;;;;;6.40;2.53;;;;;;;19.52;62.77;101122.31;5094146;28;20055;-68
2023/07/22 11:17:05;;;;;;;4.40;2.10;;;;;;;19.58;61.56;101129.44;5094262;28;20103;-68
2023/07/22 11:19:32;;;;;;;5.80;2.17;;;;;;;19.68;60.44;101119.53;5085551;28;20032;-70
2023/07/22 11:21:58;;;;;;;5.18;2.42;;;;;;;19.74;58.22;101116.47;5078679;28;20038;-71
2023/07/22 11:24:24;;;;;;;7.72;2.22;;;;;;;19.81;56.91;101113.47;5094161;28;20020;-72
2023/07/22 11:26:51;;;;;;;5.10;2.25;;;;;;;19.93;58.63;101113.97;5086746;28;20119;-69
2023/07/22 11:29:17;;;;;;;5.85;2.17;;;;;;;19.88;56.82;101107.66;5073624;28;20016;-70
2023/07/22 11:31:47;;;;;;;4.75;2.33;;;;;;;19.89;58.09;101106.56;5083634;28;20028;-70
2023/07/22 11:34:14;;;;;;;3.53;2.20;;;;;;;19.90;58.00;101100.78;5093844;28;20028;-69
2023/07/22 11:36:41;;;;;;;6.95;2.83;;;;;;;19.97;58.89;101093.06;5085464;28;20024;-70
2023/07/22 11:39:06;;;;;;;6.25;2.55;;;;;;;20.05;57.74;101104.56;5073773;28;20028;-68
2023/07/22 11:41:32;;;;;;;4.35;2.38;;;;;;;20.03;57.29;101104.03;5073350;28;20024;-68
2023/07/22 11:43:59;;;;;;;3.35;2.33;;;;;;;20.04;58.27;101108.44;5083616;28;20159;-68
2023/07/22 11:46:26;;;;;;;5.93;2.20;;;;;;;20.16;59.02;101108.91;5094965;28;20027;-70
2023/07/22 11:48:53;;;;;;;6.10;2.33;;;;;;;20.36;57.68;101100.50;5111687;28;20047;-68
2023/07/22 11:51:23;;;;;;;5.50;2.40;;;;;;;20.43;55.40;101099.41;5096845;28;20028;-68
2023/07/22 11:53:53;;;;;;;5.80;2.77;;;;;;;20.51;55.62;101096.03;5105668;28;20020;-67
2023/07/22 11:56:27;;;;;;;6.10;2.30;;;;;;;20.63;56.11;101099.22;5083773;28;20416;-69
2023/07/22 11:58:53;;;;;;;6.55;2.40;;;;;;;20.62;56.35;101096.78;5073111;28;20368;-68
2023/07/22 12:01:19;;;;;;;4.55;2.40;;;;;;;20.61;56.68;101095.97;5069640;28;20082;-69
2023/07/22 12:03:45;;;;;;;4.57;2.38;;;;;;;20.43;55.34;101093.91;5071646;28;20398;-69
2023/07/22 12:06:11;;;;;;;3.25;2.30;;;;;;;20.33;54.79;101090.09;5073094;28;20077;-70
2023/07/22 12:08:42;;;;;;;4.75;2.40;;;;;;;20.32;55.27;101093.97;5071486;28;20039;-69
2023/07/22 12:11:07;;;;;;;;;;;;;;;20.43;55.70;101091.97;5072165;28;20060;-68
2023/07/22 12:13:36;;;;;;;4.47;2.07;;;;;;;20.31;53.31;101078.56;5072504;28;19946;-70
2023/07/22 12:16:03;;;;;;;8.32;2.80;;;;;;;20.33;52.70;101065.34;5071667;28;20266;-70
2023/07/22 12:18:40;;;;;;;6.00;2.50;;;;;;;20.39;52.92;101059.84;5073972;28;20119;-70
2023/07/22 12:21:05;;;;;;;4.47;2.17;;;;;;;20.54;53.03;101062.47;5093372;28;20032;-70
2023/07/22 12:23:31;;;;;;;3.42;2.30;;;;;;;20.50;52.20;101072.38;5072082;28;20039;-70
2023/07/22 12:25:57;;;;;;;4.90;2.25;;;;;;;20.57;53.14;101070.13;5095613;28;20116;-70
2023/07/22 12:28:22;;;;;;;4.10;2.00;;;;;;;20.59;52.83;101067.09;5091813;28;20464;-74
2023/07/22 12:30:48;;;;;;;5.57;2.50;;;;;;;20.58;53.71;101063.53;5091506;28;20448;-71
2023/07/22 12:33:14;;;;;;;4.78;2.28;;;;;;;20.61;53.55;101062.97;5089272;28;20027;-71
2023/07/22 12:35:39;;;;;;;4.72;2.30;;;;;;;20.70;53.87;101061.28;5092776;28;20387;-71
2023/07/22 12:38:04;;;;;;;3.80;2.10;;;;;;;20.73;53.79;101070.03;5091207;28;20024;-68
2023/07/22 12:40:30;;;;;;;4.13;2.42;;;;;;;20.82;53.16;101065.56;5083632;28;20031;-72
2023/07/22 12:42:55;;;;;;;7.10;2.40;;;;;;;20.94;52.50;101060.50;5077882;28;20032;-69
2023/07/22 12:45:20;;;;;;;4.95;2.53;;;;;;;20.89;51.44;101068.78;5079420;28;20035;-70
2023/07/22 12:47:47;;;;;;;6.47;2.70;;;;;;;20.84;52.27;101055.91;5082446;28;20037;-70
2023/07/22 12:50:12;;;;;;;3.83;2.20;;;;;;;20.82;52.50;101051.81;5073582;28;20456;-72
2023/07/22 12:52:37;;;;;;;3.78;1.98;;;;;;;20.84;52.89;101047.66;5082931;28;20017;-71
2023/07/22 12:55:03;;;;;;;6.47;2.30;;;;;;;20.81;52.10;101050.19;5088388;28;20602;-69
2023/07/22 12:57:29;;;;;;;6.28;2.40;;;;;;;20.82;50.42;101049.06;5088612;28;20032;-71
2023/07/22 12:59:54;;;;;;;5.90;2.60;;;;;;;20.76;50.28;101048.31;5091435;28;20020;-72
2023/07/22 13:02:22;;;;;;;2.22;1.70;;;;;;;20.76;51.26;101053.81;5088865;28;20035;-76
2023/07/22 13:04:48;;;;;;;3.67;2.00;;;;;;;20.73;49.31;101053.53;5092617;28;20043;-70
2023/07/22 13:07:13;;;;;;;5.05;2.20;;;;;;;20.78;50.24;101056.25;5092608;28;20451;-75
2023/07/22 13:09:40;;;;;;;4.53;2.10;;;;;;;20.88;49.66;101058.94;5092660;28;20024;-68
2023/07/22 13:12:05;;;;;;;3.15;2.00;;;;;;;21.08;49.02;101055.16;5079472;28;20032;-68
2023/07/22 13:14:31;;;;;;;4.68;1.85;;;;;;;21.23;48.45;101059.66;5072076;28;20017;-69
2023/07/22 13:16:56;;;;;;;5.68;2.00;;;;;;;21.30;48.83;101056.56;5072230;28;20149;-70
2023/07/22 13:19:22;;;;;;;3.65;2.00;;;;;;;21.23;48.12;101045.91;5087548;28;20122;-68
2023/07/22 13:21:47;;;;;;;1.70;1.60;;;;;;;21.23;48.02;101034.91;5092137;28;20024;-69
2023/07/22 13:24:12;;;;;;;5.40;1.88;;;;;;;21.29;48.50;101032.88;5081170;28;20035;-69
2023/07/22 13:26:37;;;;;;;3.67;1.85;;;;;;;21.22;48.58;101031.31;5086013;28;20030;-68
2023/07/22 13:29:03;;;;;;;4.07;1.75;;;;;;;21.33;48.00;101029.28;5089955;28;20085;-70
2023/07/22 13:31:28;;;;;;;2.25;1.73;;;;;;;21.37;46.85;101024.81;5071343;28;20106;-70
2023/07/22 13:33:53;;;;;;;5.70;1.90;;;;;;;21.43;46.92;101023.63;5085445;28;20023;-69
2023/07/22 13:36:19;;;;;;;3.72;1.75;;;;;;;21.56;47.77;101029.59;5089095;28;20035;-68
2023/07/22 13:38:44;;;;;;;1.70;1.40;;;;;;;21.53;45.78;101025.47;5076151;28;20039;-70
2023/07/22 13:41:09;;;;;;;1.83;1.48;;;;;;;21.59;45.54;101018.78;5088175;28;20115;-69
2023/07/22 13:43:34;;;;;;;4.85;1.80;;;;;;;21.57;45.95;101028.47;5094437;28;20040;-67
2023/07/22 13:46:00;;;;;;;7.07;2.17;;;;;;;21.64;46.40;101017.91;5086255;28;20035;-68
2023/07/22 13:48:25;;;;;;;10.77;2.03;;;;;;;21.71;46.37;101023.03;5078189;28;20052;-71
2023/07/22 13:50:50;;;;;;;7.00;1.95;;;;;;;21.74;46.86;101012.25;5083293;28;20512;-70
2023/07/22 13:53:16;;;;;;;2.78;1.65;;;;;;;21.72;46.68;101008.16;5095807;28;20351;-70
2023/07/22 13:55:41;;;;;;;7.85;2.05;;;;;;;21.71;46.16;101015.63;5095652;28;20031;-69
2023/07/22 13:58:07;;;;;;;4.07;1.88;;;;;;;21.91;45.00;101006.22;5095537;28;20474;-71
2023/07/22 14:00:33;;;;;;;6.70;1.83;;;;;;;22.06;44.44;101010.69;5092129;28;20043;-68
2023/07/22 14:02:59;;;;;;;3.10;1.50;;;;;;;22.23;44.45;101006.59;5084096;28;20020;-68
2023/07/22 14:05:27;;;;;;;2.63;1.70;;;;;;;22.25;43.13;101007.94;5095411;28;20036;-74
2023/07/22 14:07:54;;;;;;;3.08;1.38;;;;;;;22.30;42.94;101001.53;5095466;28;20032;-69
2023/07/22 14:10:19;;;;;;;4.60;1.75;;;;;;;22.37;43.23;100996.44;5088984;28;20027;-70
2023/07/22 14:12:44;;;;;;;5.20;2.00;;;;;;;22.21;43.07;101008.81;5092142;28;20107;-71
2023/07/22 14:15:10;;;;;;;3.67;1.70;;;;;;;22.10;43.97;101009.00;5095184;28;20340;-69
2023/07/22 14:17:37;;;;;;;4.38;2.00;;;;;;;21.98;43.58;101014.13;5095330;28;20186;-70
2023/07/22 14:20:04;;;;;;;4.05;1.77;;;;;;;21.93;44.20;101005.94;5094290;28;20081;-68
2023/07/22 14:22:30;;;;;;;3.35;1.75;;;;;;;21.86;43.83;101000.81;5095400;28;20565;-70
2023/07/22 14:24:55;;;;;;;4.47;1.50;;;;;;;21.81;44.21;101008.31;5084184;28;20048;-69
2023/07/22 14:27:20;;;;;;;3.10;1.90;;;;;;;21.74;44.62;101000.41;5074761;28;20032;-69
2023/07/22 14:29:45;;;;;;;4.70;1.90;;;;;;;21.64;44.29;100995.06;5074708;28;20021;-70
2023/07/22 14:32:11;;;;;;;3.85;1.60;;;;;;;21.52;44.12;100995.50;5075267;28;20021;-70
2023/07/22 14:34:36;;;;;;;4.35;2.10;;;;;;;21.37;45.17;101001.97;5074511;28;20448;-68
2023/07/22 14:37:04;;;;;;;5.18;2.25;;;;;;;21.18;44.94;101001.91;5079188;28;20026;-67
2023/07/22 14:39:29;;;;;;;4.55;2.08;;;;;;;21.06;45.34;100997.66;5088840;28;20051;-67
2023/07/22 14:41:54;;;;;;;4.20;1.95;;;;;;;20.92;45.37;100996.69;5087784;28;20063;-68
2023/07/22 14:44:20;;;;;;;3.05;1.63;;;;;;;20.83;45.04;100999.25;5084105;28;20444;-65
2023/07/22 14:46:45;;;;;;;2.47;1.63;;;;;;;20.78;45.59;100995.75;5106127;28;20031;-66
2023/07/22 14:49:10;;;;;;;4.00;1.92;;;;;;;20.70;45.77;101005.47;5088651;28;20024;-66
2023/07/22 14:51:36;;;;;;;4.30;2.13;;;;;;;20.66;46.58;101002.44;5075266;28;20073;-69
2023/07/22 14:54:02;;;;;;;3.97;2.00;;;;;;;20.64;46.77;101007.41;5074725;28;20024;-66
2023/07/22 14:56:27;;;;;;;4.72;1.95;;;;;;;20.53;47.76;101005.84;5076417;28;20081;-74
2023/07/22 14:58:53;;;;;;;3.30;2.08;;;;;;;20.47;48.94;101007.84;5092433;28;20031;-68
2023/07/22 15:01:18;;;;;;;4.72;2.58;;;;;;;20.40;52.06;101010.09;5091173;28;20039;-66
2023/07/22 15:03:43;;;;;;;4.45;2.20;;;;;;;20.31;52.97;101007.13;5094400;28;20085;-67
2023/07/22 15:06:08;;;;;;;7.10;2.13;;;;;;;20.33;54.11;101012.34;5093204;28;20043;-66
2023/07/22 15:08:34;;;;;;;5.18;2.50;;;;;;;20.27;55.44;101000.56;5092795;28;20027;-67
2023/07/22 15:10:59;;;;;;;6.32;2.40;;;;;;;20.26;57.79;101007.19;5094441;28;20024;-68
2023/07/22 15:13:25;;;;;;;8.70;2.80;;;;;;;20.26;58.65;101001.69;5095285;28;20032;-67
2023/07/22 15:15:53;;;;;;;4.97;2.55;;;;;;;20.30;59.28;101008.22;5082534;28;20028;-67
2023/07/22 15:18:19;;;;;;;7.80;2.80;;;;;;;20.39;59.63;100997.44;5074453;28;20063;-70
2023/07/22 15:20:44;;;;;;;7.43;2.63;;;;;;;20.46;59.57;100995.19;5088862;28;20072;-69
2023/07/22 15:23:09;;;;;;;7.63;2.95;;;;;;;20.48;60.07;101000.41;5094128;28;20573;-74
2023/07/22 15:25:35;;;;;;;5.07;2.47;;;;;;;20.47;59.64;100993.25;5093976;28;20067;-70
2023/07/22 15:28:00;;;;;;;5.32;2.78;;;;;;;20.43;60.82;100998.50;5092768;28;20020;-68
2023/07/22 15:30:25;;;;;;;4.68;2.88;;;;;;;20.32;59.36;101006.03;5093443;28;20379;-70
2023/07/22 15:32:51;;;;;;;6.45;2.70;;;;;;;20.25;61.45;101001.97;5092723;28;20058;-69
2023/07/22 15:35:17;;;;;;;7.30;2.90;;;;;;;20.18;61.96;101007.78;5076117;28;20036;-67
2023/07/22 15:37:42;;;;;;;2.97;2.28;;;;;;;;;;5093363;28;20024;-70
2023/07/22 15:40:08;;;;;;;4.03;2.80;;;;;;;20.08;62.21;101010.59;5096141;28;20028;-69
2023/07/22 15:42:33;;;;;;;5.75;3.00;;;;;;;19.98;62.48;101006.81;5114088;28;20024;-70
2023/07/22 15:44:58;;;;;;;6.68;2.70;;;;;;;19.93;63.67;101009.59;5098587;28;20031;-69
2023/07/22 15:47:24;;;;;;;6.75;2.70;;;;;;;19.91;64.74;101000.00;5093424;28;20048;-69
2023/07/22 15:49:49;;;;;;;7.07;2.80;;;;;;;19.84;64.58;101005.81;5092179;28;20028;-69
2023/07/22 15:52:14;;;;;;;5.30;2.22;;;;;;;19.80;65.80;101002.78;5084127;28;20086;-69
2023/07/22 15:54:40;;;;;;;6.65;2.50;;;;;;;19.77;65.65;101005.25;5073130;28;20024;-71
2023/07/22 15:57:05;;;;;;;5.97;2.70;;;;;;;19.71;66.61;101001.72;5072822;28;20448;-70
2023/07/22 15:59:31;;;;;;;5.38;2.53;;;;;;;19.74;66.75;101005.84;5073013;28;20437;-69
